createdAt,value
2022-12-18T00:01:38.106Z,13.73
2022-12-18T00:06:48.099Z,4.43
2022-12-18T00:11:52.757Z,13.43
2022-12-18T00:16:56.490Z,12.00
2022-12-18T00:22:01.963Z,10.00
2022-12-18T00:27:05.636Z,10.80
2022-12-18T00:32:09.491Z,13.83
2022-12-18T00:37:19.851Z,11.60
2022-12-18T00:42:45.452Z,11.40
2022-12-18T00:47:48.829Z,12.20
2022-12-18T00:52:54.015Z,13.20
2022-12-18T00:57:57.340Z,10.27
2022-12-18T01:03:05.231Z,10.63
2022-12-18T01:08:13.591Z,12.13
2022-12-18T01:13:20.681Z,12.40
2022-12-18T01:18:28.282Z,11.00
2022-12-18T01:23:33.834Z,10.63
2022-12-18T01:28:37.653Z,11.53
2022-12-18T01:33:43.281Z,10.27
2022-12-18T01:38:50.804Z,10.40
2022-12-18T01:43:58.815Z,11.23
2022-12-18T01:49:03.057Z,10.70
2022-12-18T01:54:09.803Z,10.90
2022-12-18T01:59:15.072Z,12.17
2022-12-18T02:04:24.086Z,11.37
2022-12-18T02:09:32.829Z,10.57
2022-12-18T02:14:38.804Z,11.53
2022-12-18T02:19:49.681Z,9.80
2022-12-18T02:25:02.288Z,11.13
2022-12-18T02:30:11.947Z,11.10
2022-12-18T02:35:18.174Z,10.60
2022-12-18T02:40:24.905Z,11.13
2022-12-18T02:45:31.627Z,10.03
2022-12-18T02:50:38.015Z,10.03
2022-12-18T02:55:48.354Z,10.00
2022-12-18T03:01:01.881Z,10.53
2022-12-18T03:06:09.156Z,9.50
2022-12-18T03:11:17.183Z,8.90
2022-12-18T03:16:29.028Z,8.63
2022-12-18T03:21:35.585Z,9.40
2022-12-18T03:26:40.240Z,9.07
2022-12-18T03:31:51.231Z,10.30
2022-12-18T03:36:58.213Z,9.93
2022-12-18T03:42:04.504Z,9.30
2022-12-18T03:47:24.792Z,8.20
2022-12-18T03:52:32.912Z,8.60
2022-12-18T03:57:38.015Z,9.63
2022-12-18T04:02:47.518Z,9.07
2022-12-18T04:07:58.670Z,8.53
2022-12-18T04:13:04.583Z,8.73
2022-12-18T04:18:11.503Z,8.30
2022-12-18T04:23:18.890Z,8.80
2022-12-18T04:28:26.693Z,9.37
2022-12-18T04:33:32.674Z,9.53
2022-12-18T04:38:37.503Z,8.63
2022-12-18T04:43:45.640Z,9.47
2022-12-18T04:48:52.847Z,8.07
2022-12-18T04:54:03.120Z,9.13
2022-12-18T04:59:06.918Z,9.40
2022-12-18T05:04:13.485Z,8.10
2022-12-18T05:09:18.719Z,9.03
2022-12-18T05:14:23.317Z,9.07
2022-12-18T05:19:28.338Z,10.10
2022-12-18T05:24:32.071Z,10.13
2022-12-18T05:29:37.917Z,9.53
2022-12-18T05:34:44.412Z,8.10
2022-12-18T05:39:48.588Z,9.50
2022-12-18T05:44:52.056Z,10.13
2022-12-18T05:49:57.404Z,10.07
2022-12-18T05:55:01.114Z,9.97
2022-12-18T06:00:08.332Z,9.77
2022-12-18T06:05:21.833Z,10.70
2022-12-18T06:10:28.021Z,11.00
2022-12-18T06:15:32.493Z,10.70
2022-12-18T06:20:40.630Z,9.30
2022-12-18T06:25:44.819Z,11.03
2022-12-18T06:30:50.575Z,9.53
2022-12-18T06:36:01.029Z,10.53
2022-12-18T06:41:10.226Z,8.57
2022-12-18T06:46:14.545Z,9.57
2022-12-18T06:51:23.522Z,8.67
2022-12-18T06:56:27.548Z,8.85
2022-12-18T07:01:31.163Z,9.63
2022-12-18T07:06:40.560Z,10.00
2022-12-18T07:11:45.146Z,8.70
2022-12-18T07:16:51.647Z,9.20
2022-12-18T07:21:58.513Z,8.77
2022-12-18T07:27:03.357Z,10.33
2022-12-18T07:32:08.679Z,8.87
2022-12-18T07:37:14.962Z,9.70
2022-12-18T07:42:34.418Z,8.63
2022-12-18T07:47:45.681Z,9.05
2022-12-18T07:52:51.112Z,10.33
2022-12-18T07:58:01.299Z,10.33
2022-12-18T08:03:05.063Z,11.37
2022-12-18T08:08:11.722Z,10.57
2022-12-18T08:13:15.451Z,10.27
2022-12-18T08:18:19.722Z,10.80
2022-12-18T08:23:28.550Z,11.10
2022-12-18T08:28:32.827Z,10.80
2022-12-18T08:33:37.048Z,11.37
2022-12-18T08:38:51.234Z,10.83
2022-12-18T08:44:18.915Z,11.70
2022-12-18T08:49:23.441Z,11.50
2022-12-18T08:54:29.816Z,12.87
2022-12-18T08:59:33.683Z,13.73
2022-12-18T09:04:41.050Z,14.00
2022-12-18T09:09:50.005Z,13.23
2022-12-18T09:14:55.019Z,13.53
2022-12-18T09:20:01.608Z,13.73
2022-12-18T09:25:12.518Z,15.15
2022-12-18T09:30:17.237Z,13.47
2022-12-18T09:35:26.042Z,14.70
2022-12-18T09:40:35.952Z,13.03
2022-12-18T09:50:59.168Z,12.50
2022-12-18T09:56:04.763Z,13.83
2022-12-18T10:01:13.213Z,13.00
2022-12-18T10:06:27.610Z,14.43
2022-12-18T10:11:41.166Z,14.07
2022-12-18T10:16:50.468Z,14.13
2022-12-18T10:22:02.722Z,15.18
2022-12-18T10:27:20.947Z,14.93
2022-12-18T10:32:27.150Z,14.70
2022-12-18T10:37:31.853Z,14.48
2022-12-18T10:58:27.665Z,17.03
2022-12-18T11:03:33.923Z,15.93
2022-12-18T11:08:37.998Z,14.63
2022-12-18T11:13:46.760Z,15.23
2022-12-18T11:18:52.510Z,15.43
2022-12-18T11:23:57.454Z,14.65
2022-12-18T11:29:16.051Z,16.40
2022-12-18T11:34:30.295Z,15.52
2022-12-18T11:39:36.854Z,16.13
2022-12-18T11:44:45.312Z,15.63
2022-12-18T11:49:50.688Z,15.90
2022-12-18T11:55:00.530Z,16.50
2022-12-18T12:05:33.002Z,15.85
2022-12-18T12:10:44.361Z,15.85
2022-12-18T12:15:54.812Z,16.63
2022-12-18T12:21:10.633Z,15.82
2022-12-18T12:26:17.131Z,15.13
2022-12-18T12:31:27.019Z,14.93
2022-12-18T12:36:35.356Z,13.90
2022-12-18T12:41:57.742Z,14.25
2022-12-18T12:47:18.599Z,14.33
2022-12-18T12:52:28.866Z,14.23
2022-12-18T12:57:36.521Z,13.93
2022-12-18T13:02:49.656Z,15.50
2022-12-18T13:07:55.053Z,15.90
2022-12-18T13:13:00.788Z,17.50
2022-12-18T13:18:20.937Z,15.32
2022-12-18T13:23:34.576Z,16.17
2022-12-18T13:29:05.605Z,15.95
2022-12-18T13:34:27.480Z,15.80
2022-12-18T13:39:37.321Z,16.08
2022-12-18T13:44:41.801Z,15.32
2022-12-18T13:49:47.631Z,15.35
2022-12-18T13:54:53.562Z,16.08
2022-12-18T13:59:57.968Z,16.27
2022-12-18T14:05:04.097Z,17.25
2022-12-18T14:10:45.513Z,16.67
2022-12-18T14:15:42.526Z,17.10
2022-12-18T14:20:53.127Z,17.00
2022-12-18T14:25:59.663Z,16.77
2022-12-18T14:31:25.583Z,16.37
2022-12-18T14:36:31.613Z,16.53
2022-12-18T14:41:37.730Z,16.23
2022-12-18T14:46:43.796Z,16.07
2022-12-18T14:51:51.532Z,16.73
2022-12-18T14:56:59.420Z,16.40
2022-12-18T15:02:06.769Z,17.37
2022-12-18T15:07:16.111Z,15.93
2022-12-18T15:12:28.627Z,16.77
2022-12-18T15:17:32.200Z,15.50
2022-12-18T15:22:38.489Z,17.07
2022-12-18T15:27:58.229Z,17.37
2022-12-18T15:33:24.655Z,16.20
2022-12-18T15:38:35.057Z,15.37
2022-12-18T15:43:42.770Z,16.63
2022-12-18T15:48:48.280Z,17.03
2022-12-18T15:53:55.360Z,18.10
2022-12-18T15:58:59.391Z,17.27
2022-12-18T16:04:03.044Z,18.63
2022-12-18T16:09:08.882Z,19.50
2022-12-18T16:14:21.785Z,18.47
2022-12-18T16:19:25.865Z,18.47
2022-12-18T16:24:37.660Z,19.77
2022-12-18T16:29:41.451Z,18.55
2022-12-18T16:34:45.417Z,18.47
2022-12-18T16:39:50.708Z,19.87
2022-12-18T16:44:54.701Z,18.83
2022-12-18T16:49:58.417Z,19.03
2022-12-18T16:55:04.144Z,20.87
2022-12-18T17:00:10.520Z,19.83
2022-12-18T17:05:14.872Z,19.23
2022-12-18T17:10:20.196Z,20.40
2022-12-18T17:15:24.315Z,20.80
2022-12-18T17:20:28.328Z,19.67
2022-12-18T17:25:35.332Z,20.63
2022-12-18T17:30:41.837Z,19.83
2022-12-18T17:35:45.041Z,20.30
2022-12-18T17:40:53.072Z,20.50
2022-12-18T17:45:56.536Z,22.13
2022-12-18T17:51:03.668Z,20.20
2022-12-18T17:56:10.883Z,17.93
2022-12-18T18:01:17.765Z,21.90
2022-12-18T18:06:21.832Z,22.43
2022-12-18T18:11:43.978Z,17.83
2022-12-18T18:16:49.263Z,27.13
2022-12-18T18:22:30.989Z,22.37
2022-12-18T18:27:20.213Z,17.10
2022-12-18T18:32:24.046Z,21.50
2022-12-18T18:37:28.904Z,19.30
2022-12-18T18:42:35.553Z,15.70
2022-12-18T18:47:41.125Z,19.83
2022-12-18T18:52:44.894Z,19.27
2022-12-18T18:57:51.762Z,21.27
2022-12-18T19:03:00.455Z,20.00
2022-12-18T19:08:05.330Z,19.15
2022-12-18T19:13:26.847Z,19.97
2022-12-18T19:18:31.387Z,16.20
2022-12-18T19:23:35.319Z,17.47
2022-12-18T19:28:41.564Z,21.13
2022-12-18T19:33:49.235Z,14.20
2022-12-18T19:38:53.488Z,23.47
2022-12-18T19:44:00.009Z,22.20
2022-12-18T19:49:17.609Z,20.67
2022-12-18T19:54:23.954Z,20.13
2022-12-18T19:59:33.528Z,19.17
2022-12-18T20:04:37.970Z,21.53
2022-12-18T20:09:42.280Z,21.67
2022-12-18T20:14:47.742Z,19.40
2022-12-18T20:19:53.280Z,23.33
2022-12-18T20:25:00.472Z,21.17
2022-12-18T20:30:09.614Z,20.83
2022-12-18T20:35:13.177Z,21.50
2022-12-18T20:40:21.692Z,21.20
2022-12-18T20:45:30.484Z,21.40
2022-12-18T20:50:34.795Z,21.20
2022-12-18T20:55:43.653Z,22.17
2022-12-18T21:00:48.684Z,21.53
2022-12-18T21:05:53.353Z,21.93
2022-12-18T21:10:57.665Z,20.63
2022-12-18T21:16:03.113Z,22.97
2022-12-18T21:21:07.962Z,22.00
2022-12-18T21:26:19.096Z,19.03
2022-12-18T21:31:24.469Z,22.97
2022-12-18T21:36:29.089Z,23.07
2022-12-18T21:41:51.017Z,17.53
2022-12-18T21:47:06.895Z,23.57
2022-12-18T21:52:18.497Z,21.10
2022-12-18T21:57:22.447Z,21.97
2022-12-18T22:02:28.020Z,21.73
2022-12-18T22:07:32.102Z,21.17
2022-12-18T22:12:43.348Z,20.83
2022-12-18T22:17:53.443Z,20.83
2022-12-18T22:23:05.982Z,19.77
2022-12-18T22:28:27.982Z,21.93
2022-12-18T22:33:33.580Z,21.93
2022-12-18T22:38:37.250Z,20.37
2022-12-18T22:43:45.240Z,21.07
2022-12-18T22:48:50.877Z,20.60
2022-12-18T22:53:56.981Z,21.33
2022-12-18T22:59:01.404Z,21.73
2022-12-18T23:04:07.564Z,20.80
2022-12-18T23:09:16.317Z,21.47
2022-12-18T23:14:22.621Z,22.48
2022-12-18T23:19:29.183Z,21.27
2022-12-18T23:24:33.084Z,23.23
2022-12-18T23:29:37.532Z,22.07
2022-12-18T23:34:47.510Z,21.70
2022-12-18T23:39:51.123Z,21.60
2022-12-18T23:44:55.123Z,22.53
2022-12-18T23:50:04.397Z,21.70
2022-12-18T23:55:09.261Z,20.90
